Time;durP1;ratioP1;P1;durP2;ratioP2;P2;SDS_P1;SDS_P2;PMS_P1;PMS_P2;Temp;Humidity;BMP_temperature;BMP_pressure;BME280_temperature;BME280_humidity;BME280_pressure;Samples;Min_cycle;Max_cycle;Signal;HPM_P1;HPM_P2
2024/03/07 00:02:13;;;;;;;35.72;20.38;;;;;;;8.35;85.42;93697.88;5006649;28;20022;-82
2024/03/07 00:04:39;;;;;;;38.00;21.50;;;;;;;8.31;85.71;93694.25;5021482;28;20278;-82
2024/03/07 00:07:05;;;;;;;35.70;20.30;;;;;;;8.26;86.52;93704.22;5006575;28;20228;-82
2024/03/07 00:09:34;;;;;;;38.67;22.15;;;;;;;8.21;86.78;93702.47;5006212;28;20029;-82
2024/03/07 00:12:03;;;;;;;42.78;22.27;;;;;;;8.15;87.37;93701.78;5006302;28;20026;-82
2024/03/07 00:14:28;;;;;;;38.00;20.92;;;;;;;8.18;87.92;93687.94;5005184;28;20018;-82
2024/03/07 00:16:59;;;;;;;35.38;20.88;;;;;;;8.20;87.96;93691.06;5006149;28;20351;-82
2024/03/07 00:19:26;;;;;;;41.55;23.55;;;;;;;8.25;88.20;93690.16;5004814;28;20321;-82
2024/03/07 00:21:55;;;;;;;35.45;21.67;;;;;;;8.33;88.09;93686.00;5005684;28;20022;-82
2024/03/07 00:24:22;;;;;;;37.47;22.70;;;;;;;8.36;88.14;93686.16;5004389;28;20049;-82
2024/03/07 00:26:50;;;;;;;38.50;21.05;;;;;;;8.39;88.15;93677.59;5005902;28;20110;-81
2024/03/07 00:29:18;;;;;;;38.20;21.85;;;;;;;8.42;87.85;93673.56;5006144;28;20022;-81
2024/03/07 00:31:46;;;;;;;31.45;19.40;;;;;;;8.47;87.57;93678.78;5005826;28;20030;-81
2024/03/07 00:34:19;;;;;;;34.47;19.38;;;;;;;8.47;87.58;93678.78;5003992;28;20423;-82
2024/03/07 00:36:46;;;;;;;29.85;18.08;;;;;;;8.51;87.36;93671.78;5005420;28;20253;-82
2024/03/07 00:39:12;;;;;;;29.70;18.25;;;;;;;8.59;87.16;93689.63;5005367;28;20022;-82
2024/03/07 00:41:41;;;;;;;27.40;16.50;;;;;;;8.63;86.80;93677.31;5020671;28;20029;-83
2024/03/07 00:44:08;;;;;;;26.88;16.08;;;;;;;8.54;86.45;93686.31;5005636;28;20038;-82
2024/03/07 00:46:36;;;;;;;24.27;14.98;;;;;;;8.33;86.67;93676.16;5020550;28;20026;-82
2024/03/07 00:49:01;;;;;;;32.70;16.92;;;;;;;8.44;86.15;93676.72;5004792;28;20241;-82
2024/03/07 00:51:27;;;;;;;39.95;18.95;;;;;;;8.39;86.37;93680.25;5005082;28;20026;-81
2024/03/07 00:53:52;;;;;;;32.80;17.38;;;;;;;8.49;85.59;93673.94;5003811;28;20065;-82
2024/03/07 00:56:18;;;;;;;25.02;13.48;;;;;;;8.55;85.33;93666.63;5005097;28;20076;-82
2024/03/07 00:58:44;;;;;;;18.13;11.75;;;;;;;8.60;84.93;93666.50;5004007;28;20053;-82
2024/03/07 01:01:11;;;;;;;18.38;11.13;;;;;;;8.59;84.87;93660.41;5004748;28;20022;-82
2024/03/07 01:03:37;;;;;;;19.67;11.93;;;;;;;8.65;84.41;93642.47;5004971;28;20329;-82
2024/03/07 01:06:03;;;;;;;21.00;12.73;;;;;;;8.69;nan;93651.41;5004097;28;20046;-83
2024/03/07 01:08:28;;;;;;;18.58;11.90;;;;;;;8.68;84.18;93649.03;5004980;28;20073;-83
2024/03/07 01:10:54;;;;;;;16.58;11.27;;;;;;;8.70;84.28;93646.84;5005298;28;20026;-83
2024/03/07 01:13:22;;;;;;;17.00;10.70;;;;;;;8.72;84.29;93644.69;5020203;28;20022;-83
2024/03/07 01:15:48;;;;;;;19.23;12.02;;;;;;;8.75;84.04;93636.88;5004895;28;20026;-83
2024/03/07 01:18:14;;;;;;;19.23;11.32;;;;;;;8.73;84.23;93644.38;5005041;28;20355;-83
2024/03/07 01:20:40;;;;;;;17.40;11.52;;;;;;;8.74;84.42;93647.81;5004554;28;20093;-83
2024/03/07 01:23:05;;;;;;;18.05;11.23;;;;;;;8.79;83.77;93637.84;5003919;28;20031;-84
2024/03/07 01:25:33;;;;;;;17.00;10.73;;;;;;;8.77;84.02;93644.53;5003935;28;20088;-84
2024/03/07 01:28:00;;;;;;;19.27;11.55;;;;;;;8.70;83.89;93642.31;5004751;28;20380;-84
2024/03/07 01:30:27;;;;;;;17.17;11.95;;;;;;;8.72;83.70;93642.03;5004867;28;20072;-84
2024/03/07 01:32:53;;;;;;;20.33;12.15;;;;;;;8.73;84.09;93643.56;5004299;28;20073;-84
2024/03/07 01:35:19;;;;;;;19.05;11.45;;;;;;;8.76;83.42;93643.75;5004502;28;20026;-84
2024/03/07 01:37:44;;;;;;;20.63;11.30;;;;;;;8.78;83.58;93643.44;5002933;28;20026;-83
2024/03/07 01:40:11;;;;;;;21.13;11.05;;;;;;;8.76;83.30;93629.69;5004221;28;20042;-84
2024/03/07 01:42:36;;;;;;;17.65;12.02;;;;;;;8.77;83.39;93632.06;5004684;28;20026;-84
2024/03/07 01:45:03;;;;;;;19.10;10.70;;;;;;;8.77;83.22;93636.56;5004552;28;20030;-84
2024/03/07 01:47:28;;;;;;;18.95;11.38;;;;;;;8.79;83.19;93637.03;5004499;28;20046;-84
2024/03/07 01:49:54;;;;;;;19.20;11.02;;;;;;;8.75;83.30;93628.09;5004238;28;20215;-84
2024/03/07 01:52:22;;;;;;;17.65;11.52;;;;;;;8.74;83.13;93627.34;5004633;28;20022;-85
2024/03/07 01:54:48;;;;;;;18.23;11.20;;;;;;;8.78;83.11;93632.81;5004373;28;20025;-84
2024/03/07 01:57:16;;;;;;;18.08;11.75;;;;;;;8.77;82.94;93632.06;5004174;28;20022;-86
2024/03/07 01:59:43;;;;;;;18.23;11.55;;;;;;;8.70;82.67;93636.22;5003639;28;20678;-85
2024/03/07 02:02:09;;;;;;;16.33;10.70;;;;;;;8.62;82.23;93641.19;5004309;28;20036;-85
2024/03/07 02:04:34;;;;;;;17.50;11.27;;;;;;;8.53;82.28;93642.22;5003520;28;20054;-85
2024/03/07 02:07:00;;;;;;;16.80;10.32;;;;;;;8.41;82.95;93648.91;5004160;28;20065;-85
2024/03/07 02:09:26;;;;;;;16.13;10.63;;;;;;;8.30;83.75;93649.41;5003030;28;20030;-85
2024/03/07 02:11:51;;;;;;;15.25;10.30;;;;;;;8.13;84.64;93642.91;5019337;28;20026;-83
2024/03/07 02:14:17;;;;;;;19.30;11.80;;;;;;;8.12;84.99;93635.25;5004013;28;20216;-83
2024/03/07 02:16:43;;;;;;;14.73;9.10;;;;;;;8.14;85.64;93639.19;5004177;28;20200;-83
2024/03/07 02:19:14;;;;;;;13.10;8.30;;;;;;;8.10;83.39;93640.88;5004109;28;20026;-83
2024/03/07 02:21:39;;;;;;;13.13;8.15;;;;;;;8.04;83.00;93634.13;5004291;28;20018;-83
2024/03/07 02:24:05;;;;;;;10.15;6.78;;;;;;;7.98;83.16;93625.50;5003795;28;20033;-83
2024/03/07 02:26:31;;;;;;;11.65;5.97;;;;;;;8.02;82.31;93626.47;5002970;28;20029;-83
2024/03/07 02:28:56;;;;;;;7.93;4.03;;;;;;;8.05;81.90;93622.41;5003841;28;20098;-84
2024/03/07 02:31:34;;;;;;;8.35;3.85;;;;;;;8.11;81.51;93620.41;5003471;28;20082;-83
2024/03/07 02:34:01;;;;;;;4.13;2.25;;;;;;;8.06;81.04;93631.16;5002343;28;20019;-83
2024/03/07 02:36:27;;;;;;;3.75;2.30;;;;;;;8.10;80.05;93630.25;5002670;28;20313;-83
2024/03/07 02:38:52;;;;;;;5.15;2.65;;;;;;;8.11;79.42;93631.81;5002294;28;20316;-84
2024/03/07 02:41:17;;;;;;;3.80;2.30;;;;;;;8.03;78.54;93633.31;5003326;28;20102;-84
2024/03/07 02:43:43;;;;;;;4.05;2.17;;;;;;;7.99;77.87;93639.53;5002295;28;20026;-83
2024/03/07 02:46:11;;;;;;;3.20;1.73;;;;;;;7.84;78.38;93630.84;5003581;28;20026;-84
2024/03/07 02:48:37;;;;;;;8.02;2.08;;;;;;;7.80;79.35;93645.03;5005004;28;20042;-84
2024/03/07 02:51:03;;;;;;;3.42;2.10;;;;;;;7.74;79.82;93643.56;5007728;28;20037;-84
2024/03/07 02:53:28;;;;;;;2.70;1.75;;;;;;;7.61;79.63;93637.22;5007501;28;20279;-84
2024/03/07 02:55:54;;;;;;;4.95;2.75;;;;;;;7.38;79.32;93636.38;5007712;28;20030;-84
2024/03/07 02:58:20;;;;;;;3.70;2.28;;;;;;;7.23;80.03;93635.63;5007305;28;20033;-84
2024/03/07 03:00:49;;;;;;;3.75;2.13;;;;;;;7.14;80.69;93636.63;5007458;28;20305;-84
2024/03/07 03:03:14;;;;;;;4.18;2.70;;;;;;;7.11;81.47;93640.66;5007651;28;20060;-84
2024/03/07 03:05:39;;;;;;;7.30;2.67;;;;;;;7.12;81.97;93649.38;5007543;28;20244;-84
2024/03/07 03:08:06;;;;;;;5.85;2.80;;;;;;;7.07;82.29;93644.19;5007462;28;20022;-82
2024/03/07 03:10:33;;;;;;;5.15;2.38;;;;;;;7.03;82.94;93654.59;5006145;28;20022;-83
2024/03/07 03:12:59;;;;;;;6.05;2.60;;;;;;;6.93;83.56;93649.50;5006139;28;20036;-83
2024/03/07 03:15:25;;;;;;;3.15;1.70;;;;;;;6.83;84.02;93653.13;5007154;28;20038;-82
2024/03/07 03:17:51;;;;;;;3.60;1.60;;;;;;;6.73;84.46;93645.38;5007291;28;20018;-85
2024/03/07 03:20:33;;;;;;;5.38;1.70;;;;;;;6.73;84.94;93650.66;5007100;28;20018;-85
2024/03/07 03:22:59;;;;;;;3.70;2.22;;;;;;;6.74;84.37;93660.97;5007032;28;20247;-84
2024/03/07 03:25:26;;;;;;;4.40;2.20;;;;;;;6.66;84.47;93663.53;5007222;28;20037;-84
2024/03/07 03:27:52;;;;;;;4.18;2.15;;;;;;;6.61;84.81;93656.44;5006807;28;20030;-83
2024/03/07 03:30:18;;;;;;;4.57;2.53;;;;;;;6.60;85.82;93660.16;5006941;28;20030;-83
2024/03/07 03:32:47;;;;;;;5.90;2.53;;;;;;;6.66;86.35;93663.53;5006756;28;20030;-83
2024/03/07 03:35:13;;;;;;;5.38;3.13;;;;;;;6.67;86.13;93670.38;5006943;28;20271;-83
2024/03/07 03:37:45;;;;;;;7.05;2.72;;;;;;;6.70;86.56;93681.19;5006920;28;20034;-83
2024/03/07 03:40:11;;;;;;;7.35;2.50;;;;;;;6.73;86.46;93677.94;5007236;28;20021;-84
2024/03/07 03:42:37;;;;;;;4.95;2.28;;;;;;;6.70;86.62;93683.81;5006773;28;20022;-84
2024/03/07 03:45:07;;;;;;;5.15;3.03;;;;;;;6.69;86.94;93663.69;5005657;28;20022;-83
2024/03/07 03:47:39;;;;;;;4.00;2.40;;;;;;;6.74;87.54;93644.28;5005375;28;20316;-84
2024/03/07 03:50:05;;;;;;;5.13;2.70;;;;;;;6.80;87.91;93637.81;5005271;28;20049;-84
2024/03/07 03:52:32;;;;;;;4.88;2.75;;;;;;;6.82;88.41;93638.31;5005198;28;20050;-83
2024/03/07 03:54:59;;;;;;;4.18;2.38;;;;;;;6.88;88.27;93653.03;5005240;28;20029;-83
2024/03/07 03:57:25;;;;;;;9.32;4.38;;;;;;;6.98;87.97;93650.19;5006300;28;20232;-84
2024/03/07 03:59:51;;;;;;;5.88;1.95;;;;;;;7.04;87.50;93645.53;5005516;28;20369;-84
2024/03/07 04:02:17;;;;;;;4.70;2.55;;;;;;;7.02;86.98;93642.41;5006298;28;20026;-84
2024/03/07 04:04:42;;;;;;;4.00;2.20;;;;;;;7.02;86.90;93650.34;5006211;28;20030;-84
2024/03/07 04:07:08;;;;;;;6.78;2.50;;;;;;;6.98;86.56;93650.19;5006360;28;20100;-83
2024/03/07 04:09:33;;;;;;;4.03;2.08;;;;;;;6.95;86.84;93649.97;5006241;28;20324;-84
2024/03/07 04:11:59;;;;;;;4.00;2.38;;;;;;;6.96;86.08;93651.53;5006199;28;20029;-84
2024/03/07 04:14:25;;;;;;;6.88;1.92;;;;;;;6.92;86.39;93656.66;5006091;28;20053;-83
2024/03/07 04:16:51;;;;;;;5.72;2.60;;;;;;;6.87;87.04;93651.44;5005540;28;20026;-84
2024/03/07 04:19:20;;;;;;;8.75;2.55;;;;;;;6.76;87.35;93650.88;5004459;28;20065;-84
2024/03/07 04:21:45;;;;;;;7.25;3.00;;;;;;;6.80;87.63;93649.19;5005477;28;20081;-84
2024/03/07 04:24:12;;;;;;;4.63;3.13;;;;;;;6.86;87.40;93649.09;5005275;28;20093;-84
2024/03/07 04:26:37;;;;;;;5.72;3.75;;;;;;;6.93;87.25;93652.91;5004101;28;20026;-84
2024/03/07 04:29:03;;;;;;;10.50;4.03;;;;;;;6.99;86.75;93645.66;5004313;28;20309;-84
2024/03/07 04:31:28;;;;;;;11.13;4.18;;;;;;;7.00;86.56;93653.31;5005293;28;20060;-84
2024/03/07 04:33:54;;;;;;;8.07;4.22;;;;;;;7.02;86.87;93653.81;5005295;28;20309;-85
2024/03/07 04:36:19;;;;;;;6.97;3.35;;;;;;;6.98;86.85;93650.19;5005633;28;20030;-84
2024/03/07 04:38:45;;;;;;;8.13;4.10;;;;;;;6.90;86.92;93658.03;5005517;28;20022;-84
2024/03/07 04:41:11;;;;;;;8.65;4.80;;;;;;;6.95;87.58;93645.47;5005378;28;20305;-83
2024/03/07 04:43:37;;;;;;;8.57;4.80;;;;;;;6.97;87.14;93645.94;5005179;28;20018;-83
2024/03/07 04:46:03;;;;;;;7.50;4.18;;;;;;;6.97;87.72;93653.91;5005248;28;20228;-83
2024/03/07 04:48:28;;;;;;;6.15;3.70;;;;;;;6.98;87.93;93649.38;5004962;28;20088;-83
2024/03/07 04:50:53;;;;;;;5.68;3.60;;;;;;;7.09;87.67;93655.28;5005621;28;20030;-83
2024/03/07 04:53:19;;;;;;;4.85;3.10;;;;;;;7.15;87.90;93654.88;5005848;28;20022;-83
2024/03/07 04:55:44;;;;;;;5.88;3.60;;;;;;;7.22;87.70;93652.63;5005442;28;20026;-83
2024/03/07 04:58:10;;;;;;;5.97;3.47;;;;;;;7.28;87.43;93663.88;5005435;28;20339;-84
2024/03/07 05:00:35;;;;;;;7.53;2.92;;;;;;;7.27;86.83;93659.69;5006184;28;20072;-84
2024/03/07 05:03:00;;;;;;;6.85;2.20;;;;;;;7.30;85.62;93666.25;5005094;28;20018;-85
2024/03/07 05:05:29;;;;;;;3.13;1.50;;;;;;;7.30;83.01;93677.63;5005250;28;20026;-85
2024/03/07 05:07:55;;;;;;;2.53;1.38;;;;;;;7.23;81.13;93677.25;5005248;28;20033;-85
2024/03/07 05:10:21;;;;;;;1.45;0.90;;;;;;;7.24;80.44;93681.47;5004879;28;20329;-84
2024/03/07 05:12:46;;;;;;;8.68;1.48;;;;;;;7.22;80.19;93679.13;5005111;28;20029;-84
2024/03/07 05:15:12;;;;;;;3.88;1.25;;;;;;;7.20;79.90;93673.31;5020296;28;20018;-84
2024/03/07 05:17:38;;;;;;;6.47;2.05;;;;;;;7.15;79.57;93670.00;5004920;28;20026;-83
2024/03/07 05:20:12;;;;;;;4.45;2.28;;;;;;;7.18;79.36;93677.34;5003803;28;20026;-84
2024/03/07 05:22:44;;;;;;;2.70;1.30;;;;;;;7.10;78.88;93670.88;5004944;28;20141;-84
2024/03/07 05:25:09;;;;;;;3.63;1.52;;;;;;;7.05;78.83;93665.69;5004859;28;20085;-84
2024/03/07 05:27:36;;;;;;;5.07;2.08;;;;;;;7.03;79.11;93673.16;5004905;28;20026;-84
2024/03/07 05:30:05;;;;;;;6.03;3.03;;;;;;;7.11;79.08;93682.28;5004736;28;20101;-83
2024/03/07 05:32:32;;;;;;;5.68;2.22;;;;;;;7.09;79.01;93684.44;5004628;28;20026;-84
2024/03/07 05:34:58;;;;;;;3.35;1.95;;;;;;;7.18;78.09;93683.44;5004518;28;20089;-84
2024/03/07 05:37:23;;;;;;;3.28;1.83;;;;;;;7.23;77.70;93686.00;5004560;28;20026;-85
2024/03/07 05:39:49;;;;;;;6.82;2.00;;;;;;;7.31;76.82;93681.88;5004638;28;20197;-84
2024/03/07 05:42:15;;;;;;;2.30;1.40;;;;;;;7.35;76.59;93680.19;5019665;28;20104;-84
2024/03/07 05:44:44;;;;;;;3.22;1.50;;;;;;;7.36;77.11;93692.34;5004262;28;20038;-85
2024/03/07 05:47:10;;;;;;;2.92;1.75;;;;;;;7.42;77.20;93695.69;5019716;28;20026;-84
2024/03/07 05:49:36;;;;;;;4.88;1.98;;;;;;;7.46;77.04;93690.59;5003350;28;20060;-85
2024/03/07 05:52:03;;;;;;;4.85;1.63;;;;;;;7.48;76.72;93683.91;5004527;28;20030;-85
2024/03/07 05:54:29;;;;;;;2.90;1.63;;;;;;;7.48;76.36;93688.44;5002755;28;20026;-84
2024/03/07 05:56:54;;;;;;;3.20;1.55;;;;;;;7.49;76.02;93698.75;5003141;28;20053;-83
2024/03/07 05:59:21;;;;;;;3.97;1.50;;;;;;;7.48;75.76;93699.03;5019829;28;20030;-82
2024/03/07 06:01:47;;;;;;;3.58;1.83;;;;;;;7.51;75.62;93698.44;5004719;28;20029;-83
2024/03/07 06:04:12;;;;;;;3.65;1.80;;;;;;;7.51;75.81;93698.44;5004347;28;20029;-83
2024/03/07 06:06:38;;;;;;;2.95;1.50;;;;;;;7.50;75.45;93696.88;5004169;28;20026;-85
2024/03/07 06:09:07;;;;;;;2.70;1.40;;;;;;;7.52;75.91;93694.72;5004022;28;20029;-82
2024/03/07 06:11:36;;;;;;;3.13;1.48;;;;;;;7.45;76.30;93703.06;5004274;28;20018;-82
2024/03/07 06:14:06;;;;;;;4.32;1.80;;;;;;;7.40;75.49;93711.13;5003875;28;20121;-82
2024/03/07 06:16:35;;;;;;;2.67;1.50;;;;;;;7.32;75.60;93717.88;5002520;28;20097;-84
2024/03/07 06:19:01;;;;;;;2.65;1.52;;;;;;;7.23;75.34;93725.75;5003905;28;20018;-83
2024/03/07 06:21:27;;;;;;;3.60;1.58;;;;;;;7.19;75.18;93730.06;5004034;28;20049;-83
2024/03/07 06:23:59;;;;;;;3.28;1.55;;;;;;;7.11;75.62;93722.03;5001774;28;20018;-83
2024/03/07 06:29:13;;;;;;;4.40;2.13;;;;;;;7.08;76.08;93718.09;5004105;28;20030;-83
2024/03/07 06:31:40;;;;;;;5.82;1.50;;;;;;;6.91;76.42;93723.97;5002863;28;20030;-84
2024/03/07 06:34:06;;;;;;;6.38;2.05;;;;;;;6.84;77.11;93728.88;5001065;28;20018;-83
2024/03/07 06:36:32;;;;;;;3.42;1.60;;;;;;;6.83;76.97;93727.28;5002665;28;20260;-84
2024/03/07 06:38:58;;;;;;;3.83;1.75;;;;;;;6.85;77.43;93722.50;5002968;28;20072;-83
2024/03/07 06:41:25;;;;;;;6.15;1.98;;;;;;;6.89;77.53;93722.69;5018132;28;20034;-83
2024/03/07 06:43:51;;;;;;;4.75;1.98;;;;;;;6.94;77.57;93717.28;5003110;28;20309;-84
2024/03/07 06:46:16;;;;;;;4.38;1.80;;;;;;;7.04;77.91;93722.41;5003006;28;20094;-84
2024/03/07 06:48:42;;;;;;;2.92;1.58;;;;;;;7.07;78.48;93731.66;5002541;28;20050;-84
2024/03/07 06:51:08;;;;;;;5.00;1.48;;;;;;;7.16;78.23;93732.53;5003561;28;20026;-84
2024/03/07 06:53:33;;;;;;;5.45;2.45;;;;;;;7.26;78.21;93726.25;5002638;28;20029;-84
2024/03/07 06:55:59;;;;;;;4.30;2.15;;;;;;;7.31;78.10;93734.13;5003500;28;20256;-82
2024/03/07 06:58:26;;;;;;;5.00;2.03;;;;;;;7.43;77.02;93734.41;5003610;28;20026;-84
2024/03/07 07:00:53;;;;;;;5.28;2.03;;;;;;;7.54;76.83;93725.16;5003900;28;20220;-83
2024/03/07 07:03:20;;;;;;;3.75;1.50;;;;;;;7.60;76.28;93731.91;5003454;28;20033;-84
2024/03/07 07:05:45;;;;;;;2.85;1.50;;;;;;;7.66;75.58;93724.66;5002566;28;20121;-84
2024/03/07 07:08:12;;;;;;;3.47;1.80;;;;;;;7.76;75.96;93727.09;5003464;28;20034;-84
2024/03/07 07:10:40;;;;;;;4.32;1.90;;;;;;;7.87;75.82;93722.34;5003519;28;20076;-83
2024/03/07 07:13:06;;;;;;;16.13;4.55;;;;;;;7.96;75.96;93719.78;5003924;28;20369;-84
2024/03/07 07:15:31;;;;;;;3.95;1.83;;;;;;;8.04;76.15;93706.56;5003618;28;20034;-84
2024/03/07 07:17:57;;;;;;;10.38;2.40;;;;;;;8.22;75.50;93714.66;5003517;28;20130;-83
2024/03/07 07:20:23;;;;;;;4.40;2.20;;;;;;;8.37;74.51;93714.31;5004320;28;20309;-83
2024/03/07 07:22:50;;;;;;;7.80;1.88;;;;;;;8.55;74.74;93707.25;5002789;28;20379;-85
2024/03/07 07:25:16;;;;;;;3.72;2.30;;;;;;;8.67;74.66;93713.88;5003701;28;20073;-85
2024/03/07 07:27:43;;;;;;;6.85;2.22;;;;;;;8.82;73.94;93716.16;5004012;28;20045;-84
2024/03/07 07:30:10;;;;;;;3.53;2.03;;;;;;;8.96;72.28;93708.88;5003776;28;20014;-84
2024/03/07 07:32:36;;;;;;;4.00;2.47;;;;;;;8.92;71.72;93701.84;5003875;28;20022;-84
2024/03/07 07:35:02;;;;;;;5.93;2.10;;;;;;;9.05;72.17;93706.25;5004167;28;20025;-84
2024/03/07 07:37:27;;;;;;;3.60;2.00;;;;;;;9.18;71.13;93715.22;5007162;28;20319;-84
2024/03/07 07:39:53;;;;;;;5.15;2.30;;;;;;;9.11;70.84;93709.56;5006765;28;20217;-84
2024/03/07 07:42:18;;;;;;;5.15;3.28;;;;;;;9.06;70.64;93712.34;5006813;28;20026;-84
2024/03/07 07:44:43;;;;;;;4.20;2.78;;;;;;;9.09;70.47;93703.78;5009604;28;20157;-85
2024/03/07 07:47:10;;;;;;;6.20;3.03;;;;;;;9.13;70.68;93708.16;5007213;28;20045;-84
2024/03/07 07:49:38;;;;;;;3.22;2.03;;;;;;;9.12;69.78;93703.16;5007168;28;20038;-84
2024/03/07 07:52:04;;;;;;;4.97;2.38;;;;;;;9.06;70.10;93705.19;5006912;28;20221;-85
2024/03/07 07:54:30;;;;;;;4.40;2.35;;;;;;;8.95;71.36;93707.28;5006838;28;20011;-85
2024/03/07 07:56:55;;;;;;;6.13;3.20;;;;;;;8.79;73.01;93706.13;5006649;28;20029;-85
2024/03/07 07:59:20;;;;;;;7.35;2.83;;;;;;;8.68;72.11;93702.19;5006444;28;20026;-85
2024/03/07 08:01:46;;;;;;;4.80;2.55;;;;;;;8.60;72.67;93701.81;5006498;28;20068;-85
2024/03/07 08:04:11;;;;;;;4.28;2.55;;;;;;;8.64;73.43;93713.41;5006627;28;20202;-85
2024/03/07 08:06:37;;;;;;;5.65;2.70;;;;;;;8.68;73.24;93710.16;5006526;28;20030;-85
2024/03/07 08:09:02;;;;;;;7.13;3.38;;;;;;;8.71;74.08;93712.19;5006100;28;20110;-85
2024/03/07 08:11:28;;;;;;;4.57;2.90;;;;;;;8.72;72.61;93719.06;5005962;28;20022;-85
2024/03/07 08:13:54;;;;;;;9.35;3.03;;;;;;;8.78;73.10;93729.25;5004995;28;20101;-84
2024/03/07 08:16:19;;;;;;;9.05;2.90;;;;;;;8.78;72.33;93720.53;5005104;28;20048;-88
2024/03/07 08:18:45;;;;;;;5.65;2.67;;;;;;;8.94;71.90;93718.25;5006729;28;20042;-89
2024/03/07 08:21:11;;;;;;;4.18;2.90;;;;;;;9.08;71.17;93736.75;5006862;28;20038;-89
2024/03/07 08:23:39;;;;;;;3.72;2.30;;;;;;;9.14;71.54;93730.22;5006616;28;20022;-89
2024/03/07 08:26:05;;;;;;;4.40;2.50;;;;;;;9.18;71.04;93731.16;5006811;28;20101;-89
2024/03/07 08:28:31;;;;;;;6.57;2.95;;;;;;;9.10;69.17;93739.88;5006883;28;20038;-89
2024/03/07 08:30:56;;;;;;;5.22;2.78;;;;;;;9.00;69.13;93755.03;5006755;28;20042;-89
2024/03/07 08:33:22;;;;;;;5.72;2.60;;;;;;;8.93;70.18;93752.00;5005842;28;20037;-84
2024/03/07 08:35:49;;;;;;;6.18;2.50;;;;;;;8.91;69.66;93756.06;5006181;28;20265;-86
2024/03/07 08:38:15;;;;;;;4.07;2.28;;;;;;;8.91;69.80;93759.50;5005094;28;20202;-86
2024/03/07 08:40:40;;;;;;;7.90;3.25;;;;;;;8.90;69.87;93757.94;5006446;28;20050;-87
2024/03/07 08:43:07;;;;;;;4.65;2.58;;;;;;;8.97;70.69;93750.31;5005839;28;20217;-87
2024/03/07 08:45:33;;;;;;;4.95;2.38;;;;;;;9.13;71.26;93760.56;5004241;28;20093;-87
2024/03/07 08:47:58;;;;;;;8.25;2.63;;;;;;;9.14;71.40;93773.56;5005689;28;20030;-88
2024/03/07 08:50:26;;;;;;;4.97;2.67;;;;;;;9.23;70.97;93776.25;5005330;28;20050;-87
2024/03/07 08:52:51;;;;;;;4.10;2.33;;;;;;;9.27;70.49;93774.56;5020624;28;20331;-87
2024/03/07 08:55:19;;;;;;;8.02;2.20;;;;;;;9.24;70.07;93767.97;5020885;28;20046;-87
2024/03/07 08:57:46;;;;;;;6.97;2.30;;;;;;;9.21;69.33;93770.47;5005738;28;20022;-86
2024/03/07 09:00:21;;;;;;;4.82;1.98;;;;;;;9.11;69.65;93774.16;5005609;28;20022;-89
2024/03/07 09:02:48;;;;;;;5.90;2.53;;;;;;;9.06;70.55;93768.97;5005314;28;20109;-89
2024/03/07 09:05:15;;;;;;;6.05;2.78;;;;;;;9.05;70.58;93775.38;5005454;28;20026;-88
2024/03/07 09:07:41;;;;;;;8.10;2.78;;;;;;;8.87;70.71;93763.09;5007268;28;20321;-90
2024/03/07 09:10:07;;;;;;;6.90;3.50;;;;;;;9.03;70.95;93773.00;5005217;28;20033;-87
2024/03/07 09:12:33;;;;;;;6.72;2.70;;;;;;;9.19;69.46;93775.28;5005827;28;20030;-89
2024/03/07 09:14:58;;;;;;;7.05;2.88;;;;;;;9.24;68.84;93769.84;5005207;28;20069;-89
2024/03/07 09:17:23;;;;;;;7.65;2.83;;;;;;;9.18;69.81;93773.72;5005284;28;20221;-88
2024/03/07 09:19:49;;;;;;;8.15;3.50;;;;;;;9.33;70.58;93770.66;5004933;28;20097;-92
2024/03/07 09:22:15;;;;;;;14.60;4.25;;;;;;;9.40;70.61;93776.34;5005488;28;20026;-86
2024/03/07 09:24:41;;;;;;;8.55;3.42;;;;;;;9.46;69.02;93779.63;5020087;28;20060;-89
2024/03/07 09:27:06;;;;;;;9.23;4.65;;;;;;;9.42;70.08;93784.78;5005772;28;20018;-81
2024/03/07 09:29:32;;;;;;;11.18;3.75;;;;;;;9.51;70.42;93781.38;5005076;28;20037;-81
2024/03/07 09:31:57;;;;;;;8.23;3.42;;;;;;;9.57;70.40;93788.13;5004946;28;20030;-88
2024/03/07 09:34:24;;;;;;;7.43;4.43;;;;;;;9.57;70.16;93785.47;5004908;28;20014;-88
2024/03/07 09:36:50;;;;;;;5.38;3.40;;;;;;;9.24;69.72;93777.84;5004811;28;20033;-83
2024/03/07 09:39:18;;;;;;;7.00;3.42;;;;;;;9.30;70.63;93768.63;5003951;28;20022;-81
2024/03/07 09:41:44;;;;;;;11.40;3.65;;;;;;;9.36;70.74;93780.69;5003210;28;20029;-84
2024/03/07 09:44:14;;;;;;;9.35;3.33;;;;;;;9.16;69.96;93778.56;5002985;28;20031;-74
2024/03/07 09:46:40;;;;;;;10.70;3.70;;;;;;;9.08;70.09;93773.97;5004387;28;20312;-81
2024/03/07 09:49:08;;;;;;;10.43;3.70;;;;;;;9.25;70.50;93784.72;5004222;28;20050;-80
2024/03/07 09:51:35;;;;;;;6.25;3.78;;;;;;;9.44;70.52;93776.50;5004311;28;20229;-82
2024/03/07 09:54:01;;;;;;;12.52;4.22;;;;;;;9.60;69.86;93782.19;5004173;28;20022;-84
2024/03/07 09:56:28;;;;;;;7.20;3.75;;;;;;;9.68;69.33;93776.09;5003885;28;20334;-83
2024/03/07 09:58:57;;;;;;;15.98;4.10;;;;;;;9.68;69.93;93775.31;5002102;28;20277;-79
2024/03/07 10:01:26;;;;;;;17.02;3.90;;;;;;;9.78;69.33;93777.69;5004197;28;20182;-80
2024/03/07 10:04:11;;;;;;;6.00;3.70;;;;;;;9.82;68.97;93782.09;5003928;28;20088;-77
2024/03/07 10:06:39;;;;;;;13.93;4.32;;;;;;;9.83;69.30;93773.03;5004151;28;20022;-78
2024/03/07 10:09:06;;;;;;;7.18;3.45;;;;;;;9.92;69.16;93769.59;5003969;28;20022;-77
2024/03/07 10:11:32;;;;;;;9.75;4.10;;;;;;;9.97;69.38;93764.09;5003752;28;20339;-78
2024/03/07 10:13:57;;;;;;;8.18;4.53;;;;;;;10.03;69.01;93771.66;5018948;28;20038;-78
2024/03/07 10:16:23;;;;;;;17.05;5.20;;;;;;;10.05;69.01;93768.66;5002578;28;20030;-78
2024/03/07 10:18:50;;;;;;;10.75;3.70;;;;;;;10.07;68.66;93763.81;5003899;28;20026;-78
2024/03/07 10:21:19;;;;;;;6.53;3.25;;;;;;;10.20;68.50;93762.91;5003799;28;20030;-77
2024/03/07 10:23:44;;;;;;;6.65;3.70;;;;;;;10.25;67.60;93756.63;5003490;28;20037;-77
2024/03/07 10:26:10;;;;;;;18.90;4.30;;;;;;;10.28;67.37;93761.34;5003785;28;20042;-78
2024/03/07 10:28:36;;;;;;;10.13;4.32;;;;;;;10.38;67.56;93750.41;5003821;28;20022;-77
2024/03/07 10:31:03;;;;;;;11.30;4.15;;;;;;;10.57;66.93;93751.94;5003902;28;20028;-78
2024/03/07 10:33:32;;;;;;;12.10;3.78;;;;;;;10.69;66.68;93746.75;5003499;28;20396;-77
2024/03/07 10:35:58;;;;;;;9.60;4.05;;;;;;;10.81;66.51;93741.56;5003787;28;20018;-78
2024/03/07 10:38:24;;;;;;;11.95;5.53;;;;;;;10.96;65.65;93748.28;5003605;28;20018;-78
2024/03/07 10:40:55;;;;;;;7.47;4.38;;;;;;;11.06;66.07;93749.03;5003459;28;20086;-81
2024/03/07 10:43:21;;;;;;;8.40;4.30;;;;;;;11.11;65.49;93748.84;5003513;28;20022;-82
2024/03/07 10:45:52;;;;;;;8.98;4.10;;;;;;;11.10;65.45;93748.09;5003778;28;20029;-82
2024/03/07 10:48:20;;;;;;;13.13;4.50;;;;;;;11.14;64.62;93750.91;5003887;28;20051;-83
2024/03/07 10:50:47;;;;;;;9.00;4.57;;;;;;;11.16;64.18;93740.69;5003612;28;20023;-81
2024/03/07 10:53:44;;;;;;;11.43;5.15;;;;;;;11.18;64.31;93749.16;5003680;28;20014;-81
2024/03/07 10:56:31;;;;;;;10.70;4.53;;;;;;;11.19;64.19;93742.72;5003733;28;20030;-82
2024/03/07 10:59:20;;;;;;;7.80;4.68;;;;;;;11.22;63.61;93740.19;5003562;28;20553;-82
2024/03/07 11:01:54;;;;;;;6.32;3.72;;;;;;;11.26;63.13;93740.34;5003436;28;20305;-81
2024/03/07 11:04:22;;;;;;;10.35;3.88;;;;;;;11.27;62.77;93731.22;5003327;28;20320;-83
2024/03/07 11:06:49;;;;;;;8.90;3.88;;;;;;;11.25;62.78;93738.78;5003444;28;20030;-83
2024/03/07 11:09:22;;;;;;;9.80;4.00;;;;;;;11.24;62.73;93721.22;5004006;28;20026;-83
2024/03/07 11:11:48;;;;;;;10.18;2.85;;;;;;;11.26;62.54;93734.25;5005354;28;20089;-83
2024/03/07 11:14:16;;;;;;;6.63;3.47;;;;;;;11.25;62.60;93736.09;5005134;28;20137;-83
2024/03/07 11:16:42;;;;;;;6.93;3.53;;;;;;;11.23;62.73;93724.97;5005441;28;20260;-83
2024/03/07 11:19:27;;;;;;;6.70;3.65;;;;;;;11.20;62.79;93728.28;5006356;28;20022;-83
2024/03/07 11:21:54;;;;;;;5.88;3.15;;;;;;;11.16;62.87;93735.38;5005523;28;20030;-84
2024/03/07 11:24:28;;;;;;;7.65;2.50;;;;;;;11.10;63.14;93731.31;5006438;28;20027;-83
2024/03/07 11:26:56;;;;;;;5.80;2.58;;;;;;;11.06;63.07;93727.72;5021531;28;20032;-83
2024/03/07 11:29:52;;;;;;;9.13;3.80;;;;;;;10.97;63.03;93728.53;5021989;28;20026;-83
2024/03/07 11:32:20;;;;;;;6.53;2.70;;;;;;;10.89;63.57;93731.19;5006656;28;20065;-83
2024/03/07 11:34:46;;;;;;;16.92;3.80;;;;;;;10.81;63.73;93738.13;5005678;28;20114;-83
2024/03/07 11:37:22;;;;;;;11.43;3.15;;;;;;;10.79;63.83;93727.78;5006603;28;20034;-83
2024/03/07 11:39:50;;;;;;;4.32;2.38;;;;;;;10.71;63.79;93719.81;5006436;28;20041;-83